LGAVLGKR

Guest
Details From LGAV - Athens Intl Airport Elefterios Venizel
To LGKR - IOANNIS KAPODISTRIAS INTL
Flight Number -
Tags generated
Created
Modified
Stats Distance 214 nm / 396 km
Max Altitude 0 ft / 0 m
Waypoints 2
Social Downloads 1
Likes 0
Share VATSIM

Download

Looking for another format? Having issues loading an existing format? Contact us
Advertisement - Login to hide

Notes

Basic altitude profile: - Ascent Rate: 2500ft/min - Ascent Speed: 190kts - Cruise Altitude: 8000ft - Cruise Speed: 210kts - Descent Rate: 1500ft/min - Descent Speed: 210kts Options: - Use NATs: no - Use PACOTS: no - Use low airways: no - Use high airways: no

Route

LGAV LGKR

ID Type Via Altitude (ft/m) Position (lat/lon) Dist (leg/tot) Name
O LGAV APT - 0 / 0 37.93636 / 23.94447 - / 0 nm Athens Intl Airport Elefterios Venizel
O LGKR APT - 0 / 0 39.60178 / 19.91191 213 / 213 nm IOANNIS KAPODISTRIAS INTL

Altitude Profile

Advertisement - Login to hide

Weather


0- 5 10 15 20 25 30 35+ Temperature / °C

Clouds and Precipitation
Forecast for 2018-09-20 18:00 UTC. Updated 16 minutes ago

Ground ~20,000 ft ~40,000 ft Winds

LGAV

Details ICAO LGAV (ATH)
Name Athens Eleftherios Venizelos
Region Greece
Timezone Europe/Athens (UTC+3.0)
Stats Elevation 308 ft / 94 m (AMSL)
Location 37.936700° 23.944500°
Runways 2
Magnetic Variation 4.559° E

METAR

LGAV 201520Z 04020KT CAVOK 25/10 Q1016 NOSIG

Decode

TAF

TAF TAF LGAV 201100Z 2012/2112 02018G28KT 9999 FEW030 BECMG 2016/2018 35015KT BECMG 2107/2109 02015G25KT

Decode

Departure Runways

ID Width Length Bearing (true/mag) Surface Threshold Overrun Markings Lighting
03L 148 ft / 45 m 12,479 ft / 3,804 m 36.85° / 32.29° ASPHALT 984 ft / 300 m 397 ft / 121 m PREC-APP CENTERLINE EDGE THRESHOLD ALSF-II TDZ
03R 148 ft / 45 m 13,136 ft / 4,004 m 36.89° / 32.33° ASPHALT 984 ft / 300 m 387 ft / 118 m PREC-APP CENTERLINE EDGE THRESHOLD ALSF-II TDZ
21L 148 ft / 45 m 13,136 ft / 4,004 m 216.91° / 212.35° ASPHALT 984 ft / 300 m 400 ft / 122 m PREC-APP CENTERLINE EDGE THRESHOLD ALSF-II TDZ
21R 148 ft / 45 m 12,479 ft / 3,804 m 216.87° / 212.31° ASPHALT 984 ft / 300 m 394 ft / 120 m PREC-APP CENTERLINE EDGE THRESHOLD ALSF-II TDZ

LGKR

Details ICAO LGKR (CFU)
Name IOANNIS KAPODISTRIAS INTL
Region Greece
Timezone Europe/Athens (UTC+3.0)
Stats Elevation 0 ft / 0 m (AMSL)
Location 39.602300° 19.912000°
Runways 1
Magnetic Variation 4.175° E

METAR

LGKR 201520Z 25004KT CAVOK 28/21 Q1015 NOSIG

Decode

TAF

TAF LGKR 201100Z 2012/2112 VRB05KT 9999 FEW020

Decode

Destination Runways

ID Width Length Bearing (true/mag) Surface Threshold Overrun Markings Lighting
17 148 ft / 45 m 7,604 ft / 2,318 m 168.78° / 164.61° ASPHALT 1,342 ft / 409 m 0 ft / 0 m PREC-APP EDGE THRESHOLD ALSF-I
35 148 ft / 45 m 7,604 ft / 2,318 m 348.79° / 344.61° ASPHALT 0 ft / 0 m 0 ft / 0 m PREC-APP EDGE THRESHOLD SALS REIL-OMNI

Popular Alternatives